PRIVATE WETTERSTATION BILLIGHEIM-ALLFELD                       ZURCK
Wetterdaten: Donnerstag, 04.09.2014
Datum Zeit Temp. A. Temp. A. min Temp. A. max Feuchte A. Luftdruck Regen Wind Richtung Richtung Sonnenschein ET Solar Taupunkt Windchill Windben Empfang
04.09.2014 00:00 13,8 C 13,8 C 13,9 C 87 % 1018,7 hPa 0,0 l/m 0,0 km/h (0 Bft) SW 225 0 min 0,000 mm 0 W/m 11,7 C 13,8 C 1,6 km/h (1 Bft) 100 %
04.09.2014 00:10 13,8 C 13,8 C 13,9 C 87 % 1018,6 hPa 0,0 l/m 0,0 km/h (0 Bft) SW 225 0 min 0,000 mm 0 W/m 11,7 C 13,8 C 1,6 km/h (1 Bft) 100 %
04.09.2014 00:20 13,9 C 13,8 C 13,9 C 88 % 1018,6 hPa 0,0 l/m 0,0 km/h (0 Bft) SW 225 0 min 0,000 mm 0 W/m 11,9 C 13,9 C 3,2 km/h (1 Bft) 100 %
04.09.2014 00:30 14,0 C 13,9 C 14,0 C 88 % 1018,5 hPa 0,0 l/m 0,0 km/h (0 Bft) SW 225 0 min 0,000 mm 0 W/m 12,0 C 14,0 C 4,8 km/h (1 Bft) 99 %
04.09.2014 00:40 14,1 C 14,0 C 14,1 C 88 % 1018,3 hPa 0,0 l/m 0,0 km/h (0 Bft) SW 225 0 min 0,000 mm 0 W/m 12,1 C 14,1 C 4,8 km/h (1 Bft) 100 %
04.09.2014 00:50 14,2 C 14,1 C 14,2 C 87 % 1018,3 hPa 0,0 l/m 0,0 km/h (0 Bft) S-SW 202 0 min 0,000 mm 0 W/m 12,1 C 14,2 C 6,4 km/h (2 Bft) 99 %
04.09.2014 01:00 14,1 C 14,1 C 14,2 C 87 % 1018,4 hPa 0,0 l/m 0,0 km/h (0 Bft) SW 225 0 min 0,000 mm 0 W/m 12,0 C 14,1 C 3,2 km/h (1 Bft) 100 %
04.09.2014 01:10 14,1 C 14,1 C 14,1 C 87 % 1018,5 hPa 0,0 l/m 0,0 km/h (0 Bft) SW 225 0 min 0,000 mm 0 W/m 12,0 C 14,1 C 4,8 km/h (1 Bft) 100 %
04.09.2014 01:20 13,9 C 13,9 C 14,1 C 88 % 1018,5 hPa 0,0 l/m 0,0 km/h (0 Bft) S-SW 202 0 min 0,000 mm 0 W/m 11,9 C 13,9 C 3,2 km/h (1 Bft) 100 %
04.09.2014 01:30 13,9 C 13,9 C 13,9 C 87 % 1018,4 hPa 0,0 l/m 0,0 km/h (0 Bft) SW 225 0 min 0,000 mm 0 W/m 11,8 C 13,9 C 3,2 km/h (1 Bft) 100 %
04.09.2014 01:40 13,9 C 13,9 C 13,9 C 87 % 1018,4 hPa 0,0 l/m 0,0 km/h (0 Bft) SW 225 0 min 0,000 mm 0 W/m 11,8 C 13,9 C 3,2 km/h (1 Bft) 100 %
04.09.2014 01:50 13,9 C 13,9 C 13,9 C 88 % 1018,2 hPa 0,0 l/m 0,0 km/h (0 Bft) SW 225 0 min 0,000 mm 0 W/m 11,9 C 13,9 C 3,2 km/h (1 Bft) 100 %
04.09.2014 02:00 13,9 C 13,9 C 13,9 C 88 % 1018,1 hPa 0,0 l/m 0,0 km/h (0 Bft) SW 225 0 min 0,000 mm 0 W/m 11,9 C 13,9 C 3,2 km/h (1 Bft) 100 %
04.09.2014 02:10 13,9 C 13,9 C 13,9 C 88 % 1018,0 hPa 0,0 l/m 0,0 km/h (0 Bft) SW 225 0 min 0,000 mm 0 W/m 11,9 C 13,9 C 3,2 km/h (1 Bft) 100 %
04.09.2014 02:20 13,9 C 13,9 C 13,9 C 88 % 1017,9 hPa 0,0 l/m 0,0 km/h (0 Bft) SW 225 0 min 0,000 mm 0 W/m 11,9 C 13,9 C 1,6 km/h (1 Bft) 100 %
04.09.2014 02:30 13,9 C 13,9 C 13,9 C 88 % 1017,8 hPa 0,0 l/m 0,0 km/h (0 Bft) N-NO 22 0 min 0,000 mm 0 W/m 11,9 C 13,9 C 4,8 km/h (1 Bft) 100 %
04.09.2014 02:40 13,8 C 13,8 C 13,9 C 88 % 1017,7 hPa 0,0 l/m 0,0 km/h (0 Bft) O-NO 67 0 min 0,000 mm 0 W/m 11,8 C 13,8 C 4,8 km/h (1 Bft) 100 %
04.09.2014 02:50 13,7 C 13,7 C 13,8 C 88 % 1017,8 hPa 0,0 l/m 0,0 km/h (0 Bft) W-NW 292 0 min 0,000 mm 0 W/m 11,7 C 13,7 C 3,2 km/h (1 Bft) 100 %
04.09.2014 03:00 13,5 C 13,5 C 13,7 C 88 % 1017,7 hPa 0,0 l/m 0,0 km/h (0 Bft) W-NW 292 0 min 0,000 mm 0 W/m 11,6 C 13,5 C 3,2 km/h (1 Bft) 100 %
04.09.2014 03:10 13,3 C 13,3 C 13,5 C 88 % 1017,8 hPa 0,0 l/m 0,0 km/h (0 Bft) W-SW 247 0 min 0,000 mm 0 W/m 11,4 C 13,3 C 3,2 km/h (1 Bft) 100 %
04.09.2014 03:20 13,2 C 13,2 C 13,3 C 88 % 1017,8 hPa 0,0 l/m 0,0 km/h (0 Bft) W-SW 247 0 min 0,000 mm 0 W/m 11,3 C 13,2 C 4,8 km/h (1 Bft) 100 %
04.09.2014 03:30 13,1 C 13,1 C 13,2 C 88 % 1017,8 hPa 0,0 l/m 0,0 km/h (0 Bft) W-SW 247 0 min 0,000 mm 0 W/m 11,2 C 13,1 C 3,2 km/h (1 Bft) 100 %
04.09.2014 03:40 13,1 C 13,1 C 13,1 C 88 % 1017,8 hPa 0,0 l/m 0,0 km/h (0 Bft) NW 315 0 min 0,000 mm 0 W/m 11,2 C 13,1 C 4,8 km/h (1 Bft) 100 %
04.09.2014 03:50 13,2 C 13,1 C 13,2 C 88 % 1017,8 hPa 0,0 l/m 0,0 km/h (0 Bft) NW 315 0 min 0,000 mm 0 W/m 11,3 C 13,2 C 1,6 km/h (1 Bft) 100 %
04.09.2014 04:00 13,3 C 13,2 C 13,3 C 88 % 1017,7 hPa 0,0 l/m 0,0 km/h (0 Bft) SW 225 0 min 0,000 mm 0 W/m 11,4 C 13,3 C 4,8 km/h (1 Bft) 100 %
04.09.2014 04:10 13,4 C 13,3 C 13,4 C 88 % 1017,7 hPa 0,0 l/m 0,0 km/h (0 Bft) N-NO 22 0 min 0,000 mm 0 W/m 11,5 C 13,4 C 6,4 km/h (2 Bft) 100 %
04.09.2014 04:20 13,4 C 13,4 C 13,5 C 88 % 1017,5 hPa 0,0 l/m 0,0 km/h (0 Bft) W-SW 247 0 min 0,000 mm 0 W/m 11,5 C 13,4 C 4,8 km/h (1 Bft) 100 %
04.09.2014 04:30 13,5 C 13,4 C 13,5 C 88 % 1017,5 hPa 0,0 l/m 0,0 km/h (0 Bft) W-SW 247 0 min 0,000 mm 0 W/m 11,6 C 13,5 C 3,2 km/h (1 Bft) 100 %
04.09.2014 04:40 13,6 C 13,5 C 13,6 C 88 % 1017,5 hPa 0,0 l/m 0,0 km/h (0 Bft) W-SW 247 0 min 0,000 mm 0 W/m 11,6 C 13,6 C 1,6 km/h (1 Bft) 100 %
04.09.2014 04:50 13,6 C 13,5 C 13,6 C 88 % 1017,4 hPa 0,0 l/m 0,0 km/h (0 Bft) N 0 0 min 0,000 mm 0 W/m 11,6 C 13,6 C 0,0 km/h (0 Bft) 100 %
04.09.2014 05:00 13,6 C 13,6 C 13,6 C 88 % 1017,4 hPa 0,0 l/m 0,0 km/h (0 Bft) N 0 0 min 0,000 mm 0 W/m 11,6 C 13,6 C 0,0 km/h (0 Bft) 100 %
04.09.2014 05:10 13,6 C 13,6 C 13,6 C 88 % 1017,4 hPa 0,0 l/m 0,0 km/h (0 Bft) N 0 0 min 0,000 mm 0 W/m 11,6 C 13,6 C 0,0 km/h (0 Bft) 100 %
04.09.2014 05:20 13,7 C 13,6 C 13,7 C 88 % 1017,3 hPa 0,0 l/m 0,0 km/h (0 Bft) N 0 0 min 0,000 mm 0 W/m 11,7 C 13,7 C 0,0 km/h (0 Bft) 100 %
04.09.2014 05:30 13,7 C 13,7 C 13,7 C 88 % 1017,2 hPa 0,0 l/m 0,0 km/h (0 Bft) N 0 0 min 0,000 mm 0 W/m 11,7 C 13,7 C 0,0 km/h (0 Bft) 100 %
04.09.2014 05:40 13,8 C 13,7 C 13,8 C 88 % 1017,2 hPa 0,0 l/m 0,0 km/h (0 Bft) N 0 0 min 0,000 mm 0 W/m 11,8 C 13,8 C 0,0 km/h (0 Bft) 100 %
04.09.2014 05:50 13,9 C 13,8 C 13,9 C 88 % 1017,2 hPa 0,0 l/m 0,0 km/h (0 Bft) W-SW 247 0 min 0,000 mm 0 W/m 11,9 C 13,9 C 3,2 km/h (1 Bft) 100 %
04.09.2014 06:00 13,9 C 13,9 C 13,9 C 88 % 1017,0 hPa 0,0 l/m 0,0 km/h (0 Bft) N 0 0 min 0,000 mm 0 W/m 11,9 C 13,9 C 0,0 km/h (0 Bft) 100 %
04.09.2014 06:10 13,8 C 13,8 C 13,9 C 88 % 1016,9 hPa 0,0 l/m 0,0 km/h (0 Bft) N 0 0 min 0,000 mm 0 W/m 11,8 C 13,8 C 0,0 km/h (0 Bft) 99 %
04.09.2014 06:20 13,7 C 13,7 C 13,8 C 88 % 1016,9 hPa 0,0 l/m 0,0 km/h (0 Bft) N 0 0 min 0,000 mm 0 W/m 11,7 C 13,7 C 0,0 km/h (0 Bft) 100 %
04.09.2014 06:30 13,6 C 13,6 C 13,7 C 88 % 1017,0 hPa 0,0 l/m 0,0 km/h (0 Bft) N 0 0 min 0,000 mm 0 W/m 11,6 C 13,6 C 0,0 km/h (0 Bft) 100 %
04.09.2014 06:40 13,4 C 13,4 C 13,6 C 88 % 1017,0 hPa 0,0 l/m 0,0 km/h (0 Bft) N 0 0 min 0,000 mm 0 W/m 11,5 C 13,4 C 0,0 km/h (0 Bft) 100 %
04.09.2014 06:50 13,3 C 13,3 C 13,4 C 88 % 1017,0 hPa 0,0 l/m 0,0 km/h (0 Bft) N 0 0 min 0,000 mm 7 W/m 11,4 C 13,3 C 0,0 km/h (0 Bft) 100 %
04.09.2014 07:00 13,3 C 13,3 C 13,3 C 88 % 1017,1 hPa 0,0 l/m 0,0 km/h (0 Bft) W-SW 247 0 min 0,000 mm 12 W/m 11,4 C 13,3 C 1,6 km/h (1 Bft) 100 %
04.09.2014 07:10 13,4 C 13,3 C 13,4 C 88 % 1017,2 hPa 0,0 l/m 0,0 km/h (0 Bft) W-SW 247 0 min 0,000 mm 12 W/m 11,5 C 13,4 C 3,2 km/h (1 Bft) 100 %
04.09.2014 07:20 13,6 C 13,4 C 13,6 C 88 % 1017,1 hPa 0,0 l/m 0,0 km/h (0 Bft) O 90 0 min 0,000 mm 14 W/m 11,6 C 13,6 C 4,8 km/h (1 Bft) 100 %
04.09.2014 07:30 13,8 C 13,6 C 13,8 C 88 % 1017,1 hPa 0,0 l/m 0,0 km/h (0 Bft) NO 45 0 min 0,000 mm 21 W/m 11,8 C 13,8 C 4,8 km/h (1 Bft) 99 %
04.09.2014 07:40 14,1 C 13,8 C 14,1 C 88 % 1017,2 hPa 0,0 l/m 0,0 km/h (0 Bft) W 270 0 min 0,000 mm 28 W/m 12,1 C 14,1 C 4,8 km/h (1 Bft) 100 %
04.09.2014 07:50 14,2 C 14,1 C 14,2 C 88 % 1017,2 hPa 0,0 l/m 0,0 km/h (0 Bft) W 270 0 min 0,000 mm 32 W/m 12,2 C 14,2 C 6,4 km/h (2 Bft) 100 %
04.09.2014 08:00 14,4 C 14,2 C 14,4 C 88 % 1017,2 hPa 0,0 l/m 0,0 km/h (0 Bft) W 270 0 min 0,025 mm 39 W/m 12,4 C 14,4 C 3,2 km/h (1 Bft) 100 %
04.09.2014 08:10 14,6 C 14,4 C 14,6 C 88 % 1017,2 hPa 0,0 l/m 0,0 km/h (0 Bft) W 270 0 min 0,000 mm 47 W/m 12,6 C 14,6 C 3,2 km/h (1 Bft) 100 %
04.09.2014 08:20 14,7 C 14,6 C 14,7 C 88 % 1017,2 hPa 0,0 l/m 0,0 km/h (0 Bft) W 270 0 min 0,000 mm 56 W/m 12,7 C 14,7 C 1,6 km/h (1 Bft) 100 %
04.09.2014 08:30 14,8 C 14,7 C 14,8 C 88 % 1017,2 hPa 0,0 l/m 0,0 km/h (0 Bft) W 270 0 min 0,000 mm 79 W/m 12,8 C 14,8 C 3,2 km/h (1 Bft) 100 %
04.09.2014 08:40 15,1 C 14,8 C 15,1 C 88 % 1017,2 hPa 0,0 l/m 0,0 km/h (0 Bft) W 270 0 min 0,000 mm 90 W/m 13,1 C 15,1 C 4,8 km/h (1 Bft) 100 %
04.09.2014 08:50 15,1 C 15,1 C 15,1 C 88 % 1017,1 hPa 0,0 l/m 0,0 km/h (0 Bft) W-NW 292 0 min 0,000 mm 104 W/m 13,1 C 15,1 C 4,8 km/h (1 Bft) 100 %
04.09.2014 09:00 15,3 C 15,1 C 15,3 C 88 % 1017,0 hPa 0,0 l/m 0,0 km/h (0 Bft) W-NW 292 0 min 0,051 mm 104 W/m 13,3 C 15,3 C 6,4 km/h (2 Bft) 100 %
04.09.2014 09:10 15,4 C 15,3 C 15,4 C 87 % 1017,0 hPa 0,0 l/m 0,0 km/h (0 Bft) N-NO 22 0 min 0,000 mm 118 W/m 13,2 C 15,4 C 6,4 km/h (2 Bft) 100 %
04.09.2014 09:20 15,6 C 15,4 C 15,6 C 87 % 1017,0 hPa 0,0 l/m 0,0 km/h (0 Bft) W-SW 247 0 min 0,000 mm 116 W/m 13,4 C 15,6 C 6,4 km/h (2 Bft) 100 %
04.09.2014 09:30 15,7 C 15,6 C 15,7 C 87 % 1017,1 hPa 0,0 l/m 0,0 km/h (0 Bft) W-NW 292 0 min 0,000 mm 114 W/m 13,5 C 15,7 C 4,8 km/h (1 Bft) 100 %
04.09.2014 09:40 15,8 C 15,7 C 15,8 C 87 % 1017,1 hPa 0,0 l/m 0,0 km/h (0 Bft) S-SO 157 0 min 0,000 mm 120 W/m 13,6 C 15,8 C 11,3 km/h (2 Bft) 100 %
04.09.2014 09:50 15,8 C 15,8 C 15,8 C 86 % 1017,2 hPa 0,0 l/m 1,6 km/h (1 Bft) N-NO 22 0 min 0,000 mm 51 W/m 13,5 C 15,8 C 8,0 km/h (2 Bft) 100 %
04.09.2014 10:00 15,8 C 15,8 C 15,8 C 86 % 1017,3 hPa 0,0 l/m 1,6 km/h (1 Bft) NO 45 0 min 0,051 mm 76 W/m 13,5 C 15,8 C 8,0 km/h (2 Bft) 100 %
04.09.2014 10:10 15,8 C 15,8 C 15,8 C 87 % 1017,4 hPa 0,0 l/m 0,0 km/h (0 Bft) NW 315 0 min 0,000 mm 114 W/m 13,6 C 15,8 C 4,8 km/h (1 Bft) 99 %
04.09.2014 10:20 15,9 C 15,8 C 15,9 C 86 % 1017,4 hPa 0,0 l/m 0,0 km/h (0 Bft) S-SW 202 0 min 0,000 mm 120 W/m 13,6 C 15,9 C 3,2 km/h (1 Bft) 100 %
04.09.2014 10:30 16,1 C 15,9 C 16,1 C 86 % 1017,4 hPa 0,0 l/m 0,0 km/h (0 Bft) NO 45 10 min 0,000 mm 156 W/m 13,8 C 16,1 C 4,8 km/h (1 Bft) 100 %
04.09.2014 10:40 16,3 C 16,1 C 16,3 C 86 % 1017,3 hPa 0,0 l/m 0,0 km/h (0 Bft) W 270 10 min 0,000 mm 160 W/m 14,0 C 16,3 C 8,0 km/h (2 Bft) 100 %
04.09.2014 10:50 16,6 C 16,3 C 16,6 C 86 % 1017,3 hPa 0,0 l/m 0,0 km/h (0 Bft) W-NW 292 10 min 0,000 mm 162 W/m 14,2 C 16,6 C 8,0 km/h (2 Bft) 100 %
04.09.2014 11:00 16,7 C 16,6 C 16,7 C 85 % 1017,3 hPa 0,0 l/m 0,0 km/h (0 Bft) NO 45 10 min 0,076 mm 178 W/m 14,2 C 16,7 C 3,2 km/h (1 Bft) 100 %
04.09.2014 11:20 16,9 C 16,6 C 16,9 C 85 % 1017,2 hPa 0,0 l/m 0,4 km/h (0 Bft) W-SW 242 20 min 0,000 mm 207 W/m 14,4 C 16,9 C 6,4 km/h (2 Bft) 100 %
04.09.2014 11:30 17,1 C 16,9 C 17,1 C 84 % 1017,4 hPa 0,0 l/m 0,3 km/h (0 Bft) NO 39 10 min 0,000 mm 197 W/m 14,4 C 17,1 C 6,4 km/h (2 Bft) 99 %
04.09.2014 11:40 17,3 C 17,1 C 17,3 C 84 % 1017,3 hPa 0,0 l/m 0,0 km/h (0 Bft) O-NO 63 10 min 0,000 mm 230 W/m 14,6 C 17,3 C 1,6 km/h (1 Bft) 100 %
04.09.2014 11:50 17,4 C 17,3 C 17,4 C 83 % 1017,4 hPa 0,0 l/m 0,7 km/h (0 Bft) W-SW 256 10 min 0,000 mm 223 W/m 14,5 C 17,4 C 6,4 km/h (2 Bft) 100 %
04.09.2014 12:00 17,6 C 17,4 C 17,6 C 83 % 1017,3 hPa 0,0 l/m 0,8 km/h (0 Bft) SO 134 0 min 0,000 mm 132 W/m 14,7 C 17,6 C 6,4 km/h (2 Bft) 100 %
04.09.2014 12:10 17,6 C 17,6 C 17,6 C 83 % 1017,2 hPa 0,0 l/m 0,5 km/h (0 Bft) NO 34 10 min 0,102 mm 160 W/m 14,7 C 17,6 C 8,0 km/h (2 Bft) 100 %
04.09.2014 12:20 17,6 C 17,5 C 17,6 C 83 % 1017,2 hPa 0,0 l/m 0,8 km/h (0 Bft) O-SO 118 0 min 0,000 mm 142 W/m 14,7 C 17,6 C 8,0 km/h (2 Bft) 100 %
04.09.2014 12:30 17,6 C 17,5 C 17,6 C 84 % 1017,2 hPa 0,0 l/m 0,4 km/h (0 Bft) W-SW 249 0 min 0,000 mm 144 W/m 14,9 C 17,6 C 6,4 km/h (2 Bft) 100 %
04.09.2014 12:40 17,5 C 17,5 C 17,6 C 82 % 1017,2 hPa 0,0 l/m 1,2 km/h (1 Bft) W-NW 298 0 min 0,000 mm 149 W/m 14,4 C 17,5 C 9,7 km/h (2 Bft) 100 %
04.09.2014 12:50 17,6 C 17,5 C 17,6 C 83 % 1016,9 hPa 0,0 l/m 0,5 km/h (0 Bft) O-NO 63 0 min 0,000 mm 134 W/m 14,7 C 17,6 C 8,0 km/h (2 Bft) 100 %
04.09.2014 13:00 17,6 C 17,6 C 17,6 C 84 % 1016,8 hPa 0,0 l/m 0,1 km/h (0 Bft) SO 134 10 min 0,076 mm 172 W/m 14,9 C 17,6 C 1,6 km/h (1 Bft) 100 %
04.09.2014 13:10 17,8 C 17,6 C 17,8 C 83 % 1016,8 hPa 0,0 l/m 0,4 km/h (0 Bft) NO 42 10 min 0,000 mm 213 W/m 14,9 C 17,8 C 6,4 km/h (2 Bft) 100 %
04.09.2014 13:20 17,9 C 17,8 C 17,9 C 83 % 1016,7 hPa 0,0 l/m 0,3 km/h (0 Bft) O-SO 122 0 min 0,000 mm 139 W/m 15,0 C 17,9 C 4,8 km/h (1 Bft) 100 %
04.09.2014 13:30 18,0 C 17,9 C 18,0 C 83 % 1016,8 hPa 0,0 l/m 0,8 km/h (0 Bft) N 5 10 min 0,000 mm 156 W/m 15,1 C 18,0 C 6,4 km/h (2 Bft) 100 %
04.09.2014 13:40 17,9 C 17,9 C 18,0 C 82 % 1016,6 hPa 0,0 l/m 1,3 km/h (1 Bft) O 84 10 min 0,000 mm 163 W/m 14,8 C 17,9 C 8,0 km/h (2 Bft) 100 %
04.09.2014 13:50 17,9 C 17,9 C 17,9 C 82 % 1016,6 hPa 0,0 l/m 0,8 km/h (0 Bft) SO 127 0 min 0,000 mm 125 W/m 14,8 C 17,9 C 6,4 km/h (2 Bft) 100 %
04.09.2014 14:00 17,9 C 17,9 C 18,0 C 83 % 1016,6 hPa 0,0 l/m 1,0 km/h (0 Bft) SO 128 0 min 0,102 mm 151 W/m 15,0 C 17,9 C 6,4 km/h (2 Bft) 100 %
04.09.2014 14:10 18,0 C 17,9 C 18,0 C 82 % 1016,6 hPa 0,0 l/m 0,7 km/h (0 Bft) O 89 10 min 0,000 mm 197 W/m 14,9 C 18,0 C 8,0 km/h (2 Bft) 100 %
04.09.2014 14:20 18,1 C 18,0 C 18,1 C 83 % 1016,6 hPa 0,0 l/m 0,0 km/h (0 Bft) W 265 10 min 0,000 mm 169 W/m 15,2 C 18,1 C 1,6 km/h (1 Bft) 100 %
04.09.2014 14:30 18,2 C 18,1 C 18,2 C 83 % 1016,6 hPa 0,0 l/m 0,1 km/h (0 Bft) W-SW 248 10 min 0,000 mm 206 W/m 15,3 C 18,2 C 3,2 km/h (1 Bft) 100 %
04.09.2014 14:40 18,4 C 18,2 C 18,4 C 82 % 1016,6 hPa 0,0 l/m 0,2 km/h (0 Bft) SO 142 10 min 0,000 mm 200 W/m 15,3 C 18,4 C 3,2 km/h (1 Bft) 99 %
04.09.2014 14:50 18,6 C 18,4 C 18,6 C 83 % 1016,5 hPa 0,0 l/m 0,2 km/h (0 Bft) W 281 10 min 0,000 mm 290 W/m 15,7 C 18,6 C 4,8 km/h (1 Bft) 100 %
04.09.2014 15:00 18,8 C 18,6 C 18,8 C 82 % 1016,4 hPa 0,0 l/m 0,4 km/h (0 Bft) O-NO 59 10 min 0,127 mm 241 W/m 15,7 C 18,8 C 4,8 km/h (1 Bft) 100 %
04.09.2014 15:10 19,0 C 18,8 C 19,0 C 82 % 1016,4 hPa 0,0 l/m 0,0 km/h (0 Bft) N-NO 24 10 min 0,000 mm 211 W/m 15,9 C 19,0 C 1,6 km/h (1 Bft) 100 %
04.09.2014 15:20 19,1 C 19,0 C 19,1 C 80 % 1016,3 hPa 0,0 l/m 0,2 km/h (0 Bft) W-NW 294 10 min 0,000 mm 218 W/m 15,6 C 19,1 C 3,2 km/h (1 Bft) 100 %
04.09.2014 15:30 19,2 C 19,1 C 19,2 C 81 % 1016,2 hPa 0,0 l/m 0,2 km/h (0 Bft) O-NO 64 10 min 0,000 mm 200 W/m 15,9 C 19,2 C 4,8 km/h (1 Bft) 100 %
04.09.2014 15:40 19,4 C 19,2 C 19,4 C 81 % 1016,1 hPa 0,0 l/m 0,0 km/h (0 Bft) O-NO 61 10 min 0,000 mm 260 W/m 16,1 C 19,4 C 1,6 km/h (1 Bft) 100 %
04.09.2014 15:50 19,5 C 19,3 C 19,5 C 80 % 1016,1 hPa 0,0 l/m 0,0 km/h (0 Bft) SO 128 10 min 0,000 mm 244 W/m 16,0 C 19,5 C 1,6 km/h (1 Bft) 100 %
04.09.2014 16:00 19,6 C 19,5 C 19,6 C 81 % 1016,0 hPa 0,0 l/m 0,4 km/h (0 Bft) N-NO 32 10 min 0,127 mm 258 W/m 16,2 C 19,6 C 6,4 km/h (2 Bft) 100 %
04.09.2014 16:10 19,7 C 19,6 C 19,7 C 79 % 1016,0 hPa 0,0 l/m 0,5 km/h (0 Bft) O-SO 103 10 min 0,000 mm 162 W/m 16,0 C 19,7 C 8,0 km/h (2 Bft) 100 %
04.09.2014 16:20 19,8 C 19,7 C 19,8 C 79 % 1015,9 hPa 0,0 l/m 0,0 km/h (0 Bft) S-SO 163 10 min 0,000 mm 200 W/m 16,0 C 19,8 C 1,6 km/h (1 Bft) 100 %
04.09.2014 16:30 19,9 C 19,8 C 19,9 C 80 % 1015,7 hPa 0,0 l/m 0,3 km/h (0 Bft) O-NO 60 10 min 0,000 mm 246 W/m 16,3 C 19,9 C 4,8 km/h (1 Bft) 100 %
04.09.2014 16:40 20,0 C 19,9 C 20,1 C 77 % 1015,6 hPa 0,0 l/m 0,3 km/h (0 Bft) O 90 0 min 0,000 mm 149 W/m 15,8 C 20,0 C 4,8 km/h (1 Bft) 100 %
04.09.2014 16:50 19,9 C 19,9 C 20,1 C 77 % 1015,6 hPa 0,0 l/m 0,3 km/h (0 Bft) SO 128 10 min 0,000 mm 167 W/m 15,7 C 19,9 C 6,4 km/h (2 Bft) 100 %
04.09.2014 17:00 19,9 C 19,9 C 19,9 C 80 % 1015,6 hPa 0,0 l/m 0,0 km/h (0 Bft) SO 128 10 min 0,127 mm 174 W/m 16,3 C 19,9 C 3,2 km/h (1 Bft) 100 %
04.09.2014 17:10 19,9 C 19,9 C 19,9 C 78 % 1015,5 hPa 0,0 l/m 0,0 km/h (0 Bft) SO 128 10 min 0,000 mm 195 W/m 15,9 C 19,9 C 1,6 km/h (1 Bft) 100 %
04.09.2014 17:20 20,1 C 19,9 C 20,1 C 80 % 1015,5 hPa 0,0 l/m 0,2 km/h (0 Bft) SO 131 10 min 0,000 mm 153 W/m 16,5 C 20,1 C 3,2 km/h (1 Bft) 100 %
04.09.2014 17:30 20,2 C 20,1 C 20,2 C 80 % 1015,4 hPa 0,0 l/m 0,0 km/h (0 Bft) SO 131 0 min 0,000 mm 114 W/m 16,6 C 20,2 C 1,6 km/h (1 Bft) 100 %
04.09.2014 17:40 20,2 C 20,2 C 20,2 C 79 % 1015,2 hPa 0,0 l/m 0,1 km/h (0 Bft) SO 126 0 min 0,000 mm 123 W/m 16,4 C 20,2 C 3,2 km/h (1 Bft) 100 %
04.09.2014 17:50 20,2 C 20,2 C 20,3 C 79 % 1015,3 hPa 0,0 l/m 0,0 km/h (0 Bft) SO 126 0 min 0,000 mm 54 W/m 16,4 C 20,2 C 1,6 km/h (1 Bft) 100 %
04.09.2014 18:00 20,1 C 20,1 C 20,3 C 79 % 1015,2 hPa 0,0 l/m 0,0 km/h (0 Bft) SO 126 0 min 0,076 mm 77 W/m 16,3 C 20,1 C 1,6 km/h (1 Bft) 100 %
04.09.2014 18:10 19,9 C 19,9 C 20,1 C 81 % 1015,1 hPa 0,0 l/m 0,0 km/h (0 Bft) SO 126 0 min 0,000 mm 100 W/m 16,5 C 19,9 C 1,6 km/h (1 Bft) 100 %
04.09.2014 18:20 19,9 C 19,9 C 19,9 C 80 % 1015,1 hPa 0,0 l/m 0,0 km/h (0 Bft) SO 128 0 min 0,000 mm 84 W/m 16,3 C 19,9 C 1,6 km/h (1 Bft) 100 %
04.09.2014 18:30 19,8 C 19,8 C 19,9 C 80 % 1015,0 hPa 0,0 l/m 0,1 km/h (0 Bft) O-SO 105 0 min 0,000 mm 67 W/m 16,2 C 19,8 C 3,2 km/h (1 Bft) 100 %
04.09.2014 18:40 19,7 C 19,7 C 19,8 C 82 % 1014,9 hPa 0,0 l/m 0,0 km/h (0 Bft) O-SO 105 0 min 0,000 mm 58 W/m 16,5 C 19,7 C 1,6 km/h (1 Bft) 100 %
04.09.2014 18:50 19,6 C 19,6 C 19,7 C 82 % 1015,0 hPa 0,0 l/m 0,3 km/h (0 Bft) SW 216 0 min 0,000 mm 53 W/m 16,4 C 19,6 C 4,8 km/h (1 Bft) 100 %
04.09.2014 19:00 19,4 C 19,4 C 19,6 C 82 % 1015,0 hPa 0,0 l/m 0,0 km/h (0 Bft) SW 216 0 min 0,051 mm 44 W/m 16,2 C 19,4 C 1,6 km/h (1 Bft) 100 %
04.09.2014 19:10 19,2 C 19,2 C 19,4 C 84 % 1015,0 hPa 0,0 l/m 0,0 km/h (0 Bft) SW 216 0 min 0,000 mm 37 W/m 16,4 C 19,2 C 1,6 km/h (1 Bft) 100 %
04.09.2014 19:20 19,1 C 19,1 C 19,2 C 84 % 1015,1 hPa 0,0 l/m 0,0 km/h (0 Bft) SW 216 0 min 0,000 mm 18 W/m 16,3 C 19,1 C 1,6 km/h (1 Bft) 100 %
04.09.2014 19:30 18,8 C 18,8 C 19,1 C 84 % 1015,1 hPa 0,0 l/m 0,2 km/h (0 Bft) W 271 0 min 0,000 mm 11 W/m 16,0 C 18,8 C 3,2 km/h (1 Bft) 100 %
04.09.2014 19:40 18,6 C 18,6 C 18,8 C 85 % 1015,2 hPa 0,0 l/m 0,2 km/h (0 Bft) W 271 0 min 0,000 mm 11 W/m 16,0 C 18,6 C 3,2 km/h (1 Bft) 100 %
04.09.2014 19:50 18,4 C 18,4 C 18,6 C 85 % 1015,2 hPa 0,0 l/m 0,0 km/h (0 Bft) W 271 0 min 0,000 mm 5 W/m 15,8 C 18,4 C 1,6 km/h (1 Bft) 100 %
04.09.2014 20:00 18,2 C 18,2 C 18,4 C 85 % 1015,2 hPa 0,0 l/m 0,0 km/h (0 Bft) W 271 0 min 0,025 mm 0 W/m 15,6 C 18,2 C 0,0 km/h (0 Bft) 100 %
04.09.2014 20:10 17,8 C 17,8 C 18,2 C 86 % 1015,3 hPa 0,0 l/m 0,0 km/h (0 Bft) W 271 0 min 0,000 mm 0 W/m 15,4 C 17,8 C 1,6 km/h (1 Bft) 100 %
04.09.2014 20:20 17,6 C 17,6 C 17,8 C 86 % 1015,3 hPa 0,0 l/m 0,0 km/h (0 Bft) W 271 0 min 0,000 mm 0 W/m 15,2 C 17,6 C 1,6 km/h (1 Bft) 100 %
04.09.2014 20:30 17,3 C 17,3 C 17,6 C 87 % 1015,3 hPa 0,0 l/m 0,0 km/h (0 Bft) W 271 0 min 0,000 mm 0 W/m 15,1 C 17,3 C 0,0 km/h (0 Bft) 100 %
04.09.2014 20:40 17,1 C 17,1 C 17,3 C 87 % 1015,3 hPa 0,0 l/m 0,0 km/h (0 Bft) W 271 0 min 0,000 mm 0 W/m 14,9 C 17,1 C 0,0 km/h (0 Bft) 100 %
04.09.2014 20:50 16,8 C 16,8 C 17,1 C 87 % 1015,4 hPa 0,0 l/m 0,0 km/h (0 Bft) W 271 0 min 0,000 mm 0 W/m 14,6 C 16,8 C 0,0 km/h (0 Bft) 100 %
04.09.2014 21:00 16,6 C 16,6 C 16,8 C 87 % 1015,5 hPa 0,0 l/m 0,0 km/h (0 Bft) W 271 0 min 0,000 mm 0 W/m 14,4 C 16,6 C 0,0 km/h (0 Bft) 100 %
04.09.2014 21:10 16,4 C 16,4 C 16,6 C 87 % 1015,5 hPa 0,0 l/m 0,0 km/h (0 Bft) W 270 0 min 0,000 mm 0 W/m 14,2 C 16,4 C 1,6 km/h (1 Bft) 100 %
04.09.2014 21:20 16,3 C 16,3 C 16,4 C 87 % 1015,4 hPa 0,0 l/m 0,0 km/h (0 Bft) N 0 0 min 0,000 mm 0 W/m 14,1 C 16,3 C 0,0 km/h (0 Bft) 100 %
04.09.2014 21:30 16,3 C 16,3 C 16,3 C 87 % 1015,2 hPa 0,0 l/m 0,0 km/h (0 Bft) N 0 0 min 0,000 mm 0 W/m 14,1 C 16,3 C 0,0 km/h (0 Bft) 100 %
04.09.2014 21:40 16,2 C 16,2 C 16,3 C 87 % 1015,2 hPa 0,0 l/m 0,0 km/h (0 Bft) N 0 0 min 0,000 mm 0 W/m 14,0 C 16,2 C 0,0 km/h (0 Bft) 100 %
04.09.2014 21:50 16,1 C 16,1 C 16,2 C 88 % 1015,1 hPa 0,0 l/m 0,0 km/h (0 Bft) N 0 0 min 0,000 mm 0 W/m 14,1 C 16,1 C 0,0 km/h (0 Bft) 100 %
04.09.2014 22:00 15,9 C 15,9 C 16,1 C 88 % 1015,1 hPa 0,0 l/m 0,0 km/h (0 Bft) N 0 0 min 0,000 mm 0 W/m 13,9 C 15,9 C 0,0 km/h (0 Bft) 100 %
04.09.2014 22:10 15,9 C 15,9 C 15,9 C 87 % 1015,0 hPa 0,0 l/m 0,0 km/h (0 Bft) N 0 0 min 0,000 mm 0 W/m 13,7 C 15,9 C 0,0 km/h (0 Bft) 100 %
04.09.2014 22:20 15,8 C 15,8 C 15,9 C 87 % 1015,1 hPa 0,0 l/m 0,0 km/h (0 Bft) N 0 0 min 0,000 mm 0 W/m 13,6 C 15,8 C 0,0 km/h (0 Bft) 100 %
04.09.2014 22:30 15,8 C 15,8 C 15,9 C 88 % 1014,9 hPa 0,0 l/m 0,0 km/h (0 Bft) N 0 0 min 0,000 mm 0 W/m 13,8 C 15,8 C 0,0 km/h (0 Bft) 100 %
04.09.2014 22:40 15,9 C 15,8 C 15,9 C 88 % 1014,9 hPa 0,0 l/m 0,0 km/h (0 Bft) W 270 0 min 0,000 mm 0 W/m 13,9 C 15,9 C 3,2 km/h (1 Bft) 99 %
04.09.2014 22:50 15,9 C 15,9 C 15,9 C 88 % 1015,1 hPa 0,0 l/m 0,0 km/h (0 Bft) N 0 0 min 0,000 mm 0 W/m 13,9 C 15,9 C 0,0 km/h (0 Bft) 100 %
04.09.2014 23:00 15,9 C 15,9 C 15,9 C 88 % 1015,0 hPa 0,0 l/m 0,0 km/h (0 Bft) W 270 0 min 0,000 mm 0 W/m 13,9 C 15,9 C 1,6 km/h (1 Bft) 100 %
04.09.2014 23:10 15,8 C 15,8 C 15,9 C 88 % 1015,0 hPa 0,0 l/m 0,0 km/h (0 Bft) N 0 0 min 0,000 mm 0 W/m 13,8 C 15,8 C 0,0 km/h (0 Bft) 100 %
04.09.2014 23:20 15,9 C 15,8 C 15,9 C 88 % 1015,1 hPa 0,0 l/m 0,0 km/h (0 Bft) N 0 0 min 0,000 mm 0 W/m 13,9 C 15,9 C 0,0 km/h (0 Bft) 100 %
04.09.2014 23:30 15,8 C 15,8 C 15,9 C 88 % 1015,0 hPa 0,0 l/m 0,0 km/h (0 Bft) N 0 0 min 0,000 mm 0 W/m 13,8 C 15,8 C 0,0 km/h (0 Bft) 100 %
04.09.2014 23:40 15,8 C 15,8 C 15,8 C 88 % 1015,0 hPa 0,0 l/m 0,0 km/h (0 Bft) N 0 0 min 0,000 mm 0 W/m 13,8 C 15,8 C 0,0 km/h (0 Bft) 100 %
04.09.2014 23:50 15,7 C 15,7 C 15,8 C 88 % 1015,0 hPa 0,0 l/m 0,0 km/h (0 Bft) N 0 0 min 0,000 mm 0 W/m 13,7 C 15,7 C 0,0 km/h (0 Bft) 100 %
_ Min-Zeit 03:30 03:30 03:40 16:40 18:40 - 00:00 - - - - - 03:30 03:30 04:50 00:30
Minimum _ 13,1 C 13,1 C 13,1 C 77 % 1014,9 hPa - 0,0 km/h (0 Bft) - - - - - 11,2 C 13,1 C 0,0 km/h (0 Bft) 99 %
_ Max-Zeit 17:50 17:40 17:50 00:20 00:00 00:00 09:50 - - 11:20 15:00 14:50 17:30 17:30 09:40 00:00
Maximum _ 20,3 C 20,2 C 20,3 C 88 % 1018,7 hPa 0,0 l/m 1,6 km/h
N-NO (1 Bft)
- - 20 min 0,127 mm 290 W/m 16,6 C 20,2 C 11,3 km/h
O (2 Bft)
100 %
Durchschnitt _ 16,2 C 16,2 C 16,3 C 85 % 1016,6 hPa #0,0 l/m 0,1 km/h (0 Bft) N-NO - #5:30 h #1,016 mm 128 W/m 13,8 C 16,2 C 3,3 km/h (1 Bft) 100 %
PRIVATE WETTERSTATION BILLIGHEIM-ALLFELD - www.neckar-odenwald-wetter.de - Holger Sonntag